sensor_id;sensor_type;location;lat;lon;timestamp;temperature;humidity
44707;DHT22;30433;45.596;8.408;2023-09-19T00:01:43;18.10;99.90
44707;DHT22;30433;45.596;8.408;2023-09-19T00:07:47;17.80;99.90
44707;DHT22;30433;45.596;8.408;2023-09-19T00:13:51;17.80;99.90
44707;DHT22;30433;45.596;8.408;2023-09-19T00:19:53;17.30;99.90
44707;DHT22;30433;45.596;8.408;2023-09-19T00:26:00;17.20;99.90
44707;DHT22;30433;45.596;8.408;2023-09-19T00:32:02;17.70;99.90
44707;DHT22;30433;45.596;8.408;2023-09-19T00:38:06;17.10;99.90
44707;DHT22;30433;45.596;8.408;2023-09-19T00:44:09;17.70;99.90
44707;DHT22;30433;45.596;8.408;2023-09-19T00:50:13;17.30;99.90
44707;DHT22;30433;45.596;8.408;2023-09-19T00:56:18;17.40;99.90
44707;DHT22;30433;45.596;8.408;2023-09-19T01:02:21;17.40;99.90
44707;DHT22;30433;45.596;8.408;2023-09-19T01:08:24;17.40;99.90
44707;DHT22;30433;45.596;8.408;2023-09-19T01:14:37;17.40;99.90
44707;DHT22;30433;45.596;8.408;2023-09-19T01:20:45;16.70;99.90
44707;DHT22;30433;45.596;8.408;2023-09-19T01:27:17;16.70;99.90
44707;DHT22;30433;45.596;8.408;2023-09-19T01:33:28;16.90;99.90
44707;DHT22;30433;45.596;8.408;2023-09-19T01:39:34;17.10;99.90
44707;DHT22;30433;45.596;8.408;2023-09-19T01:45:44;16.80;99.90
44707;DHT22;30433;45.596;8.408;2023-09-19T01:51:56;16.70;99.90
44707;DHT22;30433;45.596;8.408;2023-09-19T01:58:07;17.10;99.90
44707;DHT22;30433;45.596;8.408;2023-09-19T02:04:10;17.10;99.90
44707;DHT22;30433;45.596;8.408;2023-09-19T02:10:14;17.10;99.90
44707;DHT22;30433;45.596;8.408;2023-09-19T02:16:18;16.70;99.90
44707;DHT22;30433;45.596;8.408;2023-09-19T02:22:20;16.60;99.90
44707;DHT22;30433;45.596;8.408;2023-09-19T02:28:26;16.80;99.90
44707;DHT22;30433;45.596;8.408;2023-09-19T02:34:30;16.80;99.90
44707;DHT22;30433;45.596;8.408;2023-09-19T02:40:33;16.70;99.90
44707;DHT22;30433;45.596;8.408;2023-09-19T02:46:37;16.40;99.90
44707;DHT22;30433;45.596;8.408;2023-09-19T02:52:42;16.80;99.90
44707;DHT22;30433;45.596;8.408;2023-09-19T02:58:45;16.70;99.90
44707;DHT22;30433;45.596;8.408;2023-09-19T03:04:50;16.90;99.90
44707;DHT22;30433;45.596;8.408;2023-09-19T03:10:52;16.60;99.90
44707;DHT22;30433;45.596;8.408;2023-09-19T03:16:54;16.30;99.90
44707;DHT22;30433;45.596;8.408;2023-09-19T03:22:58;16.60;99.90
44707;DHT22;30433;45.596;8.408;2023-09-19T03:29:03;16.60;99.90
44707;DHT22;30433;45.596;8.408;2023-09-19T03:35:08;16.00;99.90
44707;DHT22;30433;45.596;8.408;2023-09-19T03:41:16;15.90;99.90
44707;DHT22;30433;45.596;8.408;2023-09-19T03:47:18;15.90;99.90
44707;DHT22;30433;45.596;8.408;2023-09-19T03:53:20;16.40;99.90
44707;DHT22;30433;45.596;8.408;2023-09-19T03:59:24;16.00;99.90
44707;DHT22;30433;45.596;8.408;2023-09-19T04:05:26;16.20;99.90
44707;DHT22;30433;45.596;8.408;2023-09-19T04:11:28;16.40;99.90
44707;DHT22;30433;45.596;8.408;2023-09-19T04:17:32;16.10;99.90
44707;DHT22;30433;45.596;8.408;2023-09-19T04:23:35;16.30;99.90
44707;DHT22;30433;45.596;8.408;2023-09-19T04:29:37;16.10;99.90
44707;DHT22;30433;45.596;8.408;2023-09-19T04:35:41;16.10;99.90
44707;DHT22;30433;45.596;8.408;2023-09-19T04:41:44;16.10;99.90
44707;DHT22;30433;45.596;8.408;2023-09-19T04:47:48;15.90;99.90
44707;DHT22;30433;45.596;8.408;2023-09-19T04:53:52;16.00;99.90
44707;DHT22;30433;45.596;8.408;2023-09-19T04:59:54;15.90;99.90
44707;DHT22;30433;45.596;8.408;2023-09-19T05:05:56;15.90;99.90
44707;DHT22;30433;45.596;8.408;2023-09-19T05:12:00;16.10;99.90
44707;DHT22;30433;45.596;8.408;2023-09-19T05:18:02;15.90;99.90
44707;DHT22;30433;45.596;8.408;2023-09-19T05:24:05;16.10;99.90
44707;DHT22;30433;45.596;8.408;2023-09-19T05:30:10;16.10;99.90
44707;DHT22;30433;45.596;8.408;2023-09-19T05:36:14;16.10;99.90
44707;DHT22;30433;45.596;8.408;2023-09-19T05:42:17;15.90;99.90
44707;DHT22;30433;45.596;8.408;2023-09-19T05:48:20;16.20;99.90
44707;DHT22;30433;45.596;8.408;2023-09-19T05:54:23;17.40;99.90
44707;DHT22;30433;45.596;8.408;2023-09-19T06:00:25;16.70;99.90
44707;DHT22;30433;45.596;8.408;2023-09-19T06:06:29;16.90;99.90
44707;DHT22;30433;45.596;8.408;2023-09-19T06:12:31;16.90;99.90
44707;DHT22;30433;45.596;8.408;2023-09-19T06:18:38;17.20;99.90
44707;DHT22;30433;45.596;8.408;2023-09-19T06:24:41;17.30;99.90
44707;DHT22;30433;45.596;8.408;2023-09-19T06:30:43;17.20;99.90
44707;DHT22;30433;45.596;8.408;2023-09-19T06:36:46;17.60;99.90
44707;DHT22;30433;45.596;8.408;2023-09-19T06:42:51;18.20;99.90
44707;DHT22;30433;45.596;8.408;2023-09-19T06:48:53;18.40;99.90
44707;DHT22;30433;45.596;8.408;2023-09-19T06:54:55;18.40;99.90
44707;DHT22;30433;45.596;8.408;2023-09-19T07:00:59;18.60;99.90
44707;DHT22;30433;45.596;8.408;2023-09-19T07:07:02;18.70;99.90
44707;DHT22;30433;45.596;8.408;2023-09-19T07:13:05;18.90;99.90
44707;DHT22;30433;45.596;8.408;2023-09-19T07:19:11;19.30;99.90
44707;DHT22;30433;45.596;8.408;2023-09-19T07:25:15;19.60;99.90
44707;DHT22;30433;45.596;8.408;2023-09-19T07:31:18;19.60;99.90
44707;DHT22;30433;45.596;8.408;2023-09-19T07:37:21;19.90;99.90
44707;DHT22;30433;45.596;8.408;2023-09-19T07:43:26;19.70;99.90
44707;DHT22;30433;45.596;8.408;2023-09-19T07:49:28;20.10;99.90
44707;DHT22;30433;45.596;8.408;2023-09-19T07:55:32;20.30;99.90
44707;DHT22;30433;45.596;8.408;2023-09-19T08:01:34;20.30;99.90
44707;DHT22;30433;45.596;8.408;2023-09-19T08:07:38;20.40;99.90
44707;DHT22;30433;45.596;8.408;2023-09-19T08:13:42;20.00;99.90
44707;DHT22;30433;45.596;8.408;2023-09-19T08:19:46;20.00;99.90
44707;DHT22;30433;45.596;8.408;2023-09-19T08:25:50;20.70;99.90
44707;DHT22;30433;45.596;8.408;2023-09-19T08:31:54;20.90;99.90
44707;DHT22;30433;45.596;8.408;2023-09-19T08:37:56;20.90;99.90
44707;DHT22;30433;45.596;8.408;2023-09-19T08:43:59;21.20;99.90
44707;DHT22;30433;45.596;8.408;2023-09-19T08:50:07;21.10;99.90
44707;DHT22;30433;45.596;8.408;2023-09-19T08:56:17;20.80;99.90
44707;DHT22;30433;45.596;8.408;2023-09-19T09:02:20;20.70;99.90
44707;DHT22;30433;45.596;8.408;2023-09-19T09:08:25;20.80;99.90
44707;DHT22;30433;45.596;8.408;2023-09-19T09:14:28;21.30;99.90
44707;DHT22;30433;45.596;8.408;2023-09-19T09:20:30;21.30;99.90
44707;DHT22;30433;45.596;8.408;2023-09-19T09:26:43;21.70;99.90
44707;DHT22;30433;45.596;8.408;2023-09-19T09:32:45;21.50;99.90
44707;DHT22;30433;45.596;8.408;2023-09-19T09:38:48;21.90;99.90
44707;DHT22;30433;45.596;8.408;2023-09-19T09:45:12;22.00;99.90
44707;DHT22;30433;45.596;8.408;2023-09-19T09:51:14;22.40;99.90
44707;DHT22;30433;45.596;8.408;2023-09-19T09:57:19;22.50;99.90
44707;DHT22;30433;45.596;8.408;2023-09-19T10:03:36;22.90;99.90
44707;DHT22;30433;45.596;8.408;2023-09-19T10:09:45;22.70;99.90
44707;DHT22;30433;45.596;8.408;2023-09-19T10:15:49;22.90;99.90
44707;DHT22;30433;45.596;8.408;2023-09-19T10:21:57;22.60;99.90
44707;DHT22;30433;45.596;8.408;2023-09-19T10:28:01;23.30;99.90
44707;DHT22;30433;45.596;8.408;2023-09-19T10:34:05;23.20;99.90
44707;DHT22;30433;45.596;8.408;2023-09-19T10:40:13;23.10;99.90
44707;DHT22;30433;45.596;8.408;2023-09-19T10:46:16;23.50;99.90
44707;DHT22;30433;45.596;8.408;2023-09-19T10:52:22;23.80;99.90
44707;DHT22;30433;45.596;8.408;2023-09-19T10:58:31;23.70;99.90
44707;DHT22;30433;45.596;8.408;2023-09-19T11:04:36;23.90;99.90
44707;DHT22;30433;45.596;8.408;2023-09-19T11:10:49;24.00;99.90
44707;DHT22;30433;45.596;8.408;2023-09-19T11:24:27;24.30;99.90
44707;DHT22;30433;45.596;8.408;2023-09-19T11:30:32;24.40;99.90
44707;DHT22;30433;45.596;8.408;2023-09-19T11:36:35;24.50;99.90
44707;DHT22;30433;45.596;8.408;2023-09-19T11:42:44;24.70;99.90
44707;DHT22;30433;45.596;8.408;2023-09-19T11:48:51;24.70;99.90
44707;DHT22;30433;45.596;8.408;2023-09-19T11:54:55;24.90;99.90
44707;DHT22;30433;45.596;8.408;2023-09-19T12:01:00;24.90;99.90
44707;DHT22;30433;45.596;8.408;2023-09-19T12:07:09;24.90;99.90
44707;DHT22;30433;45.596;8.408;2023-09-19T12:13:16;25.00;99.90
44707;DHT22;30433;45.596;8.408;2023-09-19T12:19:21;25.20;99.90
44707;DHT22;30433;45.596;8.408;2023-09-19T12:25:24;25.10;99.90
44707;DHT22;30433;45.596;8.408;2023-09-19T12:31:28;25.10;99.90
44707;DHT22;30433;45.596;8.408;2023-09-19T12:37:32;25.40;99.90
44707;DHT22;30433;45.596;8.408;2023-09-19T12:43:36;24.80;99.90
44707;DHT22;30433;45.596;8.408;2023-09-19T12:50:05;25.50;99.90
44707;DHT22;30433;45.596;8.408;2023-09-19T12:56:10;25.20;99.90
44707;DHT22;30433;45.596;8.408;2023-09-19T13:02:14;25.10;99.90
44707;DHT22;30433;45.596;8.408;2023-09-19T13:08:22;25.40;99.90
44707;DHT22;30433;45.596;8.408;2023-09-19T13:14:29;25.10;99.90
44707;DHT22;30433;45.596;8.408;2023-09-19T13:20:33;25.30;99.90
44707;DHT22;30433;45.596;8.408;2023-09-19T13:26:40;25.30;99.90
44707;DHT22;30433;45.596;8.408;2023-09-19T13:32:44;25.40;99.90
44707;DHT22;30433;45.596;8.408;2023-09-19T13:38:47;25.20;99.90
44707;DHT22;30433;45.596;8.408;2023-09-19T13:44:50;25.10;99.90
44707;DHT22;30433;45.596;8.408;2023-09-19T13:50:56;25.10;99.90
44707;DHT22;30433;45.596;8.408;2023-09-19T13:56:58;25.10;99.90
44707;DHT22;30433;45.596;8.408;2023-09-19T14:03:01;24.90;99.90
44707;DHT22;30433;45.596;8.408;2023-09-19T14:09:06;25.00;99.90
44707;DHT22;30433;45.596;8.408;2023-09-19T14:15:09;24.90;99.90
44707;DHT22;30433;45.596;8.408;2023-09-19T14:21:11;24.80;99.90
44707;DHT22;30433;45.596;8.408;2023-09-19T14:27:16;24.90;99.90
44707;DHT22;30433;45.596;8.408;2023-09-19T14:33:18;24.80;99.90
44707;DHT22;30433;45.596;8.408;2023-09-19T14:39:21;24.90;99.90
44707;DHT22;30433;45.596;8.408;2023-09-19T14:45:25;24.80;99.90
44707;DHT22;30433;45.596;8.408;2023-09-19T14:51:29;24.70;99.90
44707;DHT22;30433;45.596;8.408;2023-09-19T14:57:32;24.90;99.90
44707;DHT22;30433;45.596;8.408;2023-09-19T15:03:35;24.80;99.90
44707;DHT22;30433;45.596;8.408;2023-09-19T15:09:37;24.70;99.90
44707;DHT22;30433;45.596;8.408;2023-09-19T15:15:40;24.60;99.90
44707;DHT22;30433;45.596;8.408;2023-09-19T15:21:44;24.60;99.90
44707;DHT22;30433;45.596;8.408;2023-09-19T15:27:46;24.60;99.90
44707;DHT22;30433;45.596;8.408;2023-09-19T15:33:50;24.50;99.90
44707;DHT22;30433;45.596;8.408;2023-09-19T15:39:54;24.40;99.90
44707;DHT22;30433;45.596;8.408;2023-09-19T15:45:56;24.40;99.90
44707;DHT22;30433;45.596;8.408;2023-09-19T15:51:58;24.40;99.90
44707;DHT22;30433;45.596;8.408;2023-09-19T15:58:02;24.20;99.90
44707;DHT22;30433;45.596;8.408;2023-09-19T16:04:07;24.20;99.90
44707;DHT22;30433;45.596;8.408;2023-09-19T16:10:10;24.10;99.90
44707;DHT22;30433;45.596;8.408;2023-09-19T16:16:16;24.10;99.90
44707;DHT22;30433;45.596;8.408;2023-09-19T16:22:20;24.00;99.90
44707;DHT22;30433;45.596;8.408;2023-09-19T16:28:23;23.90;99.90
44707;DHT22;30433;45.596;8.408;2023-09-19T16:34:26;23.60;99.90
44707;DHT22;30433;45.596;8.408;2023-09-19T16:40:29;23.30;99.90
44707;DHT22;30433;45.596;8.408;2023-09-19T16:46:31;23.10;99.90
44707;DHT22;30433;45.596;8.408;2023-09-19T16:52:36;23.00;99.90
44707;DHT22;30433;45.596;8.408;2023-09-19T16:58:40;22.80;99.90
44707;DHT22;30433;45.596;8.408;2023-09-19T17:04:43;22.70;99.90
44707;DHT22;30433;45.596;8.408;2023-09-19T17:10:47;22.50;99.90
44707;DHT22;30433;45.596;8.408;2023-09-19T17:16:49;22.40;99.90
44707;DHT22;30433;45.596;8.408;2023-09-19T17:22:51;22.30;99.90
44707;DHT22;30433;45.596;8.408;2023-09-19T17:28:55;22.20;99.90
44707;DHT22;30433;45.596;8.408;2023-09-19T17:34:58;22.00;99.90
44707;DHT22;30433;45.596;8.408;2023-09-19T17:41:03;21.80;99.90
44707;DHT22;30433;45.596;8.408;2023-09-19T17:47:09;21.60;99.90
44707;DHT22;30433;45.596;8.408;2023-09-19T17:53:12;21.40;99.90
44707;DHT22;30433;45.596;8.408;2023-09-19T17:59:14;21.10;99.90
44707;DHT22;30433;45.596;8.408;2023-09-19T18:05:17;21.10;99.90
44707;DHT22;30433;45.596;8.408;2023-09-19T18:11:22;20.70;99.90
44707;DHT22;30433;45.596;8.408;2023-09-19T18:17:26;20.50;99.90
44707;DHT22;30433;45.596;8.408;2023-09-19T18:23:29;20.50;99.90
44707;DHT22;30433;45.596;8.408;2023-09-19T18:29:32;20.50;99.90
44707;DHT22;30433;45.596;8.408;2023-09-19T18:35:34;20.50;99.90
44707;DHT22;30433;45.596;8.408;2023-09-19T18:41:38;20.30;99.90
44707;DHT22;30433;45.596;8.408;2023-09-19T18:47:41;19.80;99.90
44707;DHT22;30433;45.596;8.408;2023-09-19T18:53:43;19.90;99.90
44707;DHT22;30433;45.596;8.408;2023-09-19T18:59:48;20.00;99.90
44707;DHT22;30433;45.596;8.408;2023-09-19T19:05:50;20.20;99.90
44707;DHT22;30433;45.596;8.408;2023-09-19T19:11:53;20.00;99.90
44707;DHT22;30433;45.596;8.408;2023-09-19T19:17:56;19.80;99.90
44707;DHT22;30433;45.596;8.408;2023-09-19T19:23:59;19.80;99.90
44707;DHT22;30433;45.596;8.408;2023-09-19T19:30:02;19.80;99.90
44707;DHT22;30433;45.596;8.408;2023-09-19T19:36:08;19.80;99.90
44707;DHT22;30433;45.596;8.408;2023-09-19T19:42:11;19.80;99.90
44707;DHT22;30433;45.596;8.408;2023-09-19T19:48:14;20.00;99.90
44707;DHT22;30433;45.596;8.408;2023-09-19T19:54:18;19.70;99.90
44707;DHT22;30433;45.596;8.408;2023-09-19T20:00:21;19.70;99.90
44707;DHT22;30433;45.596;8.408;2023-09-19T20:06:23;19.70;99.90
44707;DHT22;30433;45.596;8.408;2023-09-19T20:12:28;19.60;99.90
44707;DHT22;30433;45.596;8.408;2023-09-19T20:18:30;19.30;99.90
44707;DHT22;30433;45.596;8.408;2023-09-19T20:24:33;19.10;99.90
44707;DHT22;30433;45.596;8.408;2023-09-19T20:30:39;19.30;99.90
44707;DHT22;30433;45.596;8.408;2023-09-19T20:36:42;19.30;99.90
44707;DHT22;30433;45.596;8.408;2023-09-19T20:42:44;19.30;99.90
44707;DHT22;30433;45.596;8.408;2023-09-19T20:48:48;19.40;99.90
44707;DHT22;30433;45.596;8.408;2023-09-19T20:54:50;19.20;99.90
44707;DHT22;30433;45.596;8.408;2023-09-19T21:01:00;19.30;99.90
44707;DHT22;30433;45.596;8.408;2023-09-19T21:07:05;19.10;99.90
44707;DHT22;30433;45.596;8.408;2023-09-19T21:13:08;18.70;99.90
44707;DHT22;30433;45.596;8.408;2023-09-19T21:19:10;18.70;99.90
44707;DHT22;30433;45.596;8.408;2023-09-19T21:25:14;18.50;99.90
44707;DHT22;30433;45.596;8.408;2023-09-19T21:31:16;18.30;99.90
44707;DHT22;30433;45.596;8.408;2023-09-19T21:37:18;18.40;99.90
44707;DHT22;30433;45.596;8.408;2023-09-19T21:43:22;18.40;99.90
44707;DHT22;30433;45.596;8.408;2023-09-19T21:49:24;18.60;99.90
44707;DHT22;30433;45.596;8.408;2023-09-19T21:55:26;18.50;99.90
44707;DHT22;30433;45.596;8.408;2023-09-19T22:01:30;18.40;99.90
44707;DHT22;30433;45.596;8.408;2023-09-19T22:07:32;18.10;99.90
44707;DHT22;30433;45.596;8.408;2023-09-19T22:13:34;18.30;99.90
44707;DHT22;30433;45.596;8.408;2023-09-19T22:19:38;18.60;99.90
44707;DHT22;30433;45.596;8.408;2023-09-19T22:25:44;18.50;99.90
44707;DHT22;30433;45.596;8.408;2023-09-19T22:31:47;18.60;99.90
44707;DHT22;30433;45.596;8.408;2023-09-19T22:37:52;18.30;99.90
44707;DHT22;30433;45.596;8.408;2023-09-19T22:43:54;18.50;99.90
44707;DHT22;30433;45.596;8.408;2023-09-19T22:49:57;18.30;99.90
44707;DHT22;30433;45.596;8.408;2023-09-19T22:56:01;18.10;99.90
44707;DHT22;30433;45.596;8.408;2023-09-19T23:02:11;18.10;99.90
44707;DHT22;30433;45.596;8.408;2023-09-19T23:08:14;18.20;99.90
44707;DHT22;30433;45.596;8.408;2023-09-19T23:14:19;18.20;99.90
44707;DHT22;30433;45.596;8.408;2023-09-19T23:20:23;18.20;99.90
44707;DHT22;30433;45.596;8.408;2023-09-19T23:26:27;18.20;99.90
44707;DHT22;30433;45.596;8.408;2023-09-19T23:32:30;18.20;99.90
44707;DHT22;30433;45.596;8.408;2023-09-19T23:38:32;18.20;99.90
44707;DHT22;30433;45.596;8.408;2023-09-19T23:44:35;18.20;99.90
44707;DHT22;30433;45.596;8.408;2023-09-19T23:50:40;18.20;99.90
44707;DHT22;30433;45.596;8.408;2023-09-19T23:56:44;18.30;99.90
